createdAt,value
2023-03-13T00:00:01.390Z,9.51
2023-03-13T00:05:03.971Z,9.43
2023-03-13T00:10:06.759Z,9.39
2023-03-13T00:15:08.994Z,9.31
2023-03-13T00:20:11.409Z,9.25
2023-03-13T00:25:13.279Z,9.22
2023-03-13T00:30:15.198Z,9.18
2023-03-13T00:35:17.155Z,9.11
2023-03-13T00:40:20.262Z,9.02
2023-03-13T00:45:21.776Z,8.98
2023-03-13T00:50:23.407Z,8.88
2023-03-13T00:55:25.076Z,8.83
2023-03-13T01:00:26.781Z,8.81
2023-03-13T01:05:28.485Z,8.83
2023-03-13T01:10:30.178Z,8.82
2023-03-13T01:15:34.910Z,8.82
2023-03-13T01:20:38.518Z,8.78
2023-03-13T01:25:40.628Z,8.81
2023-03-13T01:30:42.563Z,8.80
2023-03-13T01:35:45.704Z,8.78
2023-03-13T01:40:49.402Z,8.76
2023-03-13T01:46:01.710Z,8.73
2023-03-13T01:51:19.744Z,8.71
2023-03-13T01:56:27.846Z,8.70
2023-03-13T02:01:30.917Z,8.65
2023-03-13T02:06:36.507Z,8.65
2023-03-13T02:11:49.944Z,8.61
2023-03-13T02:16:53.240Z,8.48
2023-03-13T02:22:06.186Z,8.46
2023-03-13T02:27:08.014Z,8.56
2023-03-13T02:32:14.265Z,8.62
2023-03-13T02:37:17.492Z,8.62
2023-03-13T02:42:22.637Z,8.68
2023-03-13T02:47:25.437Z,8.79
2023-03-13T02:52:52.205Z,8.90
2023-03-13T02:57:54.193Z,8.93
2023-03-13T03:02:56.270Z,8.79
2023-03-13T03:07:58.038Z,8.67
2023-03-13T03:13:00.572Z,8.48
2023-03-13T03:18:02.518Z,8.32
2023-03-13T03:23:04.661Z,8.24
2023-03-13T03:28:07.620Z,8.24
2023-03-13T03:33:10.017Z,8.33
2023-03-13T03:38:11.904Z,8.38
2023-03-13T03:43:13.786Z,8.41
2023-03-13T03:48:15.997Z,8.45
2023-03-13T03:53:18.128Z,8.52
2023-03-13T03:58:20.012Z,8.55
2023-03-13T04:03:37.955Z,8.57
2023-03-13T04:08:40.124Z,8.59
2023-03-13T04:13:43.957Z,8.59
2023-03-13T04:18:45.765Z,8.59
2023-03-13T04:23:47.677Z,8.61
2023-03-13T04:28:50.787Z,8.62
2023-03-13T04:33:58.240Z,8.60
2023-03-13T04:39:15.488Z,8.64
2023-03-13T04:44:33.681Z,8.67
2023-03-13T04:49:58.211Z,8.67
2023-03-13T04:55:23.774Z,8.70
2023-03-13T05:00:34.914Z,8.70
2023-03-13T05:05:46.419Z,8.74
2023-03-13T05:11:15.415Z,8.72
2023-03-13T05:16:35.602Z,8.71
2023-03-13T05:22:06.169Z,8.74
2023-03-13T05:27:28.372Z,8.75
2023-03-13T05:32:48.431Z,8.82
2023-03-13T05:38:16.593Z,8.88
2023-03-13T05:43:41.518Z,8.88
2023-03-13T05:49:04.548Z,8.85
2023-03-13T05:54:29.207Z,8.87
2023-03-13T05:59:53.215Z,8.92
2023-03-13T06:05:16.118Z,8.94
2023-03-13T06:10:18.367Z,8.93
2023-03-13T06:15:22.013Z,8.92
2023-03-13T06:20:30.138Z,8.98
2023-03-13T06:25:31.917Z,9.05
2023-03-13T06:30:33.734Z,9.09
2023-03-13T06:35:53.135Z,9.11
2023-03-13T06:40:57.634Z,9.13
2023-03-13T06:46:03.601Z,9.13
2023-03-13T06:51:05.702Z,9.11
2023-03-13T06:56:08.256Z,9.14
2023-03-13T07:01:12.052Z,9.13
2023-03-13T07:06:13.800Z,9.15
2023-03-13T07:11:16.207Z,9.20
2023-03-13T07:16:18.184Z,9.24
2023-03-13T07:21:19.853Z,9.29
2023-03-13T07:26:21.640Z,9.34
2023-03-13T07:31:26.467Z,9.39
2023-03-13T07:36:28.620Z,9.47
2023-03-13T07:41:30.503Z,9.57
2023-03-13T07:46:32.107Z,9.74
2023-03-13T07:51:43.404Z,9.86
2023-03-13T07:56:45.422Z,10.00
2023-03-13T08:01:47.319Z,10.10
2023-03-13T08:06:49.004Z,10.19
2023-03-13T08:11:50.668Z,10.33
2023-03-13T08:16:52.533Z,10.57
2023-03-13T08:21:54.163Z,10.76
2023-03-13T08:26:55.810Z,10.95
2023-03-13T08:31:58.600Z,11.16
2023-03-13T08:37:00.269Z,11.47
2023-03-13T08:42:01.914Z,11.96
2023-03-13T08:47:06.137Z,12.32
2023-03-13T08:52:08.199Z,12.63
2023-03-13T08:57:09.863Z,12.88
2023-03-13T09:02:11.760Z,13.07
2023-03-13T09:07:14.779Z,13.28
2023-03-13T09:12:30.011Z,13.51
2023-03-13T09:17:32.974Z,13.81
2023-03-13T09:22:34.723Z,13.97
2023-03-13T09:27:37.585Z,14.07
2023-03-13T09:32:39.539Z,14.25
2023-03-13T09:37:42.003Z,14.40
2023-03-13T09:42:53.000Z,14.41
2023-03-13T09:47:59.105Z,14.34
2023-03-13T09:53:15.221Z,14.23
2023-03-13T09:58:24.642Z,14.16
2023-03-13T10:03:42.685Z,14.15
2023-03-13T10:08:44.585Z,14.18
2023-03-13T10:14:10.372Z,14.27
2023-03-13T10:19:16.937Z,14.34
2023-03-13T10:24:40.183Z,14.36
2023-03-13T10:29:41.779Z,14.44
2023-03-13T10:34:50.637Z,14.56
2023-03-13T10:39:53.469Z,14.75
2023-03-13T10:45:00.462Z,14.97
2023-03-13T10:50:04.172Z,15.24
2023-03-13T10:55:10.565Z,15.46
2023-03-13T11:00:42.545Z,15.59
2023-03-13T11:05:58.725Z,15.61
2023-03-13T11:11:02.704Z,15.73
2023-03-13T11:16:20.005Z,16.00
2023-03-13T11:21:37.671Z,16.46
2023-03-13T11:27:01.995Z,16.71
2023-03-13T11:32:24.003Z,16.94
2023-03-13T11:37:31.196Z,17.10
2023-03-13T11:43:24.005Z,17.23
2023-03-13T11:48:46.883Z,17.28
2023-03-13T11:54:05.850Z,17.28
2023-03-13T11:59:32.037Z,17.32
2023-03-13T12:04:39.349Z,17.32
2023-03-13T12:09:46.293Z,17.48
2023-03-13T12:14:58.872Z,17.76
2023-03-13T12:20:09.781Z,17.50
2023-03-13T12:25:25.113Z,17.72
2023-03-13T12:30:45.626Z,17.99
2023-03-13T12:35:56.959Z,17.96
2023-03-13T12:41:20.848Z,17.84
2023-03-13T12:46:36.885Z,18.19
2023-03-13T12:51:57.878Z,18.09
2023-03-13T12:57:23.860Z,17.78
2023-03-13T13:02:30.821Z,17.67
2023-03-13T13:07:35.344Z,17.97
2023-03-13T13:12:42.339Z,18.26
2023-03-13T13:17:56.515Z,18.39
2023-03-13T13:23:22.641Z,18.52
2023-03-13T13:28:32.330Z,18.61
2023-03-13T13:33:36.527Z,18.70
2023-03-13T13:38:41.047Z,18.81
2023-03-13T13:43:45.203Z,19.02
2023-03-13T13:48:47.124Z,19.31
2023-03-13T13:53:58.124Z,19.26
2023-03-13T13:59:20.356Z,19.45
2023-03-13T14:04:30.004Z,19.67
2023-03-13T14:09:57.405Z,19.72
2023-03-13T14:15:21.864Z,19.74
2023-03-13T14:20:38.539Z,19.84
2023-03-13T14:25:48.642Z,19.81
2023-03-13T14:30:52.962Z,19.63
2023-03-13T14:35:58.023Z,19.61
2023-03-13T14:40:59.937Z,19.63
2023-03-13T14:46:14.403Z,19.91
2023-03-13T14:51:38.865Z,20.12
2023-03-13T14:56:42.227Z,20.37
2023-03-13T15:01:44.628Z,20.59
2023-03-13T15:06:46.272Z,20.83
2023-03-13T15:11:59.314Z,20.99
2023-03-13T15:17:01.232Z,20.79
2023-03-13T15:22:02.937Z,20.66
2023-03-13T15:27:14.645Z,20.32
2023-03-13T15:32:27.545Z,20.16
2023-03-13T15:37:29.704Z,20.13
2023-03-13T15:42:31.450Z,20.26
2023-03-13T15:47:33.274Z,20.18
2023-03-13T15:52:35.723Z,19.92
2023-03-13T15:57:43.981Z,19.61
2023-03-13T16:02:45.912Z,19.34
2023-03-13T16:07:47.571Z,19.19
2023-03-13T16:12:49.323Z,19.07
2023-03-13T16:17:51.182Z,19.02
2023-03-13T16:22:53.764Z,19.06
2023-03-13T16:27:56.241Z,18.86
2023-03-13T16:32:58.531Z,18.61
2023-03-13T16:38:00.266Z,18.39
2023-03-13T16:43:02.510Z,18.31
2023-03-13T16:48:04.286Z,18.11
2023-03-13T16:53:05.959Z,17.87
2023-03-13T16:58:12.617Z,17.56
2023-03-13T17:03:14.318Z,17.24
2023-03-13T17:08:18.947Z,16.90
2023-03-13T17:13:23.417Z,16.69
2023-03-13T17:18:25.712Z,16.60
2023-03-13T17:23:28.465Z,16.60
2023-03-13T17:28:30.069Z,16.46
2023-03-13T17:33:31.807Z,16.33
2023-03-13T17:38:33.466Z,16.35
2023-03-13T17:43:35.209Z,16.36
2023-03-13T17:48:36.876Z,16.36
2023-03-13T17:53:39.298Z,16.30
2023-03-13T17:58:41.179Z,16.26
2023-03-13T18:03:42.866Z,16.21
2023-03-13T18:08:44.971Z,16.16
2023-03-13T18:13:50.686Z,16.10
2023-03-13T18:18:54.006Z,16.00
2023-03-13T18:23:57.009Z,15.88
2023-03-13T18:29:00.322Z,15.81
2023-03-13T18:34:04.416Z,15.73
2023-03-13T18:39:06.427Z,15.64
2023-03-13T18:44:08.433Z,15.54
2023-03-13T18:49:17.036Z,15.47
2023-03-13T18:54:20.825Z,15.43
2023-03-13T18:59:22.871Z,15.32
2023-03-13T19:04:25.082Z,15.25
2023-03-13T19:09:42.824Z,15.15
2023-03-13T19:14:45.555Z,15.04
2023-03-13T19:19:47.410Z,14.99
2023-03-13T19:24:49.132Z,14.95
2023-03-13T19:29:51.287Z,14.89
2023-03-13T19:34:53.107Z,14.85
2023-03-13T19:39:54.908Z,14.78
2023-03-13T19:44:57.189Z,14.73
2023-03-13T19:49:59.053Z,14.66
2023-03-13T19:55:05.105Z,14.59
2023-03-13T20:00:14.134Z,14.53
2023-03-13T20:05:16.057Z,14.46
2023-03-13T20:10:17.936Z,14.40
2023-03-13T20:15:19.693Z,14.40
2023-03-13T20:20:22.167Z,14.41
2023-03-13T20:25:25.097Z,14.42
2023-03-13T20:30:27.031Z,14.47
2023-03-13T20:35:28.927Z,14.49
2023-03-13T20:40:34.916Z,14.43
2023-03-13T20:45:36.688Z,14.38
2023-03-13T20:50:38.544Z,14.31
2023-03-13T20:55:40.354Z,14.26
2023-03-13T21:00:43.108Z,14.18
2023-03-13T21:05:44.948Z,14.17
2023-03-13T21:10:46.868Z,14.11
2023-03-13T21:15:48.890Z,14.06
2023-03-13T21:20:50.684Z,13.86
2023-03-13T21:25:55.249Z,13.98
2023-03-13T21:30:57.067Z,14.01
2023-03-13T21:35:58.830Z,14.08
2023-03-13T21:41:00.598Z,14.00
2023-03-13T21:46:03.900Z,13.72
2023-03-13T21:51:06.731Z,13.81
2023-03-13T21:56:08.813Z,14.02
2023-03-13T22:01:12.078Z,13.99
2023-03-13T22:06:16.225Z,14.05
2023-03-13T22:11:18.390Z,14.09
2023-03-13T22:16:21.094Z,14.11
2023-03-13T22:21:22.739Z,13.99
2023-03-13T22:26:24.597Z,13.79
2023-03-13T22:31:26.314Z,13.58
2023-03-13T22:36:28.034Z,13.44
2023-03-13T22:41:29.705Z,13.32
2023-03-13T22:46:31.557Z,13.23
2023-03-13T22:51:33.478Z,13.07
2023-03-13T22:56:35.563Z,13.01
2023-03-13T23:01:37.297Z,12.98
2023-03-13T23:06:39.123Z,12.98
2023-03-13T23:11:42.507Z,12.90
2023-03-13T23:16:44.213Z,12.87
2023-03-13T23:21:45.945Z,12.79
2023-03-13T23:26:47.669Z,12.64
2023-03-13T23:31:49.473Z,12.50
2023-03-13T23:36:51.315Z,12.33
2023-03-13T23:41:52.961Z,12.17
2023-03-13T23:46:56.657Z,12.02
2023-03-13T23:51:58.438Z,12.03
2023-03-13T23:57:00.137Z,12.02
